sensor_id;sensor_type;location;lat;lon;timestamp;temperature;humidity
35603;DHT22;21725;50.836;4.368;2023-06-19T00:01:51;21.00;95.30
35603;DHT22;21725;50.836;4.368;2023-06-19T00:04:51;21.80;95.80
35603;DHT22;21725;50.836;4.368;2023-06-19T00:07:52;21.90;95.90
35603;DHT22;21725;50.836;4.368;2023-06-19T00:10:53;21.80;96.20
35603;DHT22;21725;50.836;4.368;2023-06-19T00:13:54;21.80;96.30
35603;DHT22;21725;50.836;4.368;2023-06-19T00:16:55;21.70;96.60
35603;DHT22;21725;50.836;4.368;2023-06-19T00:19:57;21.80;96.50
35603;DHT22;21725;50.836;4.368;2023-06-19T00:22:57;21.80;96.70
35603;DHT22;21725;50.836;4.368;2023-06-19T00:25:58;21.70;97.00
35603;DHT22;21725;50.836;4.368;2023-06-19T00:29:01;21.70;97.00
35603;DHT22;21725;50.836;4.368;2023-06-19T00:32:02;21.60;97.20
35603;DHT22;21725;50.836;4.368;2023-06-19T00:35:03;21.70;97.30
35603;DHT22;21725;50.836;4.368;2023-06-19T00:38:05;21.60;97.50
35603;DHT22;21725;50.836;4.368;2023-06-19T00:41:06;21.50;97.90
35603;DHT22;21725;50.836;4.368;2023-06-19T00:44:07;21.40;98.00
35603;DHT22;21725;50.836;4.368;2023-06-19T00:47:08;21.50;98.10
35603;DHT22;21725;50.836;4.368;2023-06-19T00:50:09;21.50;98.20
35603;DHT22;21725;50.836;4.368;2023-06-19T00:53:10;21.70;98.20
35603;DHT22;21725;50.836;4.368;2023-06-19T00:56:11;21.70;98.10
35603;DHT22;21725;50.836;4.368;2023-06-19T00:59:15;21.60;98.40
35603;DHT22;21725;50.836;4.368;2023-06-19T01:02:17;21.50;98.60
35603;DHT22;21725;50.836;4.368;2023-06-19T01:05:18;21.50;98.80
35603;DHT22;21725;50.836;4.368;2023-06-19T01:08:30;21.50;99.10
35603;DHT22;21725;50.836;4.368;2023-06-19T01:12:24;21.50;99.20
35603;DHT22;21725;50.836;4.368;2023-06-19T01:15:24;21.50;99.40
35603;DHT22;21725;50.836;4.368;2023-06-19T01:18:25;21.60;99.40
35603;DHT22;21725;50.836;4.368;2023-06-19T01:21:27;21.50;99.60
35603;DHT22;21725;50.836;4.368;2023-06-19T01:24:28;21.60;99.60
35603;DHT22;21725;50.836;4.368;2023-06-19T01:27:28;21.70;99.30
35603;DHT22;21725;50.836;4.368;2023-06-19T01:30:33;21.90;99.10
35603;DHT22;21725;50.836;4.368;2023-06-19T01:33:36;21.90;99.10
35603;DHT22;21725;50.836;4.368;2023-06-19T01:36:38;21.70;99.50
35603;DHT22;21725;50.836;4.368;2023-06-19T01:39:40;21.80;99.60
35603;DHT22;21725;50.836;4.368;2023-06-19T01:42:41;21.70;99.80
35603;DHT22;21725;50.836;4.368;2023-06-19T01:45:43;22.00;99.50
35603;DHT22;21725;50.836;4.368;2023-06-19T01:48:44;22.00;99.40
35603;DHT22;21725;50.836;4.368;2023-06-19T01:51:47;22.20;99.20
35603;DHT22;21725;50.836;4.368;2023-06-19T01:54:47;22.20;99.10
35603;DHT22;21725;50.836;4.368;2023-06-19T01:57:48;22.10;99.50
35603;DHT22;21725;50.836;4.368;2023-06-19T02:00:49;21.90;99.90
35603;DHT22;21725;50.836;4.368;2023-06-19T02:03:49;21.90;99.90
35603;DHT22;21725;50.836;4.368;2023-06-19T02:06:50;22.20;99.80
35603;DHT22;21725;50.836;4.368;2023-06-19T02:09:51;22.20;99.50
35603;DHT22;21725;50.836;4.368;2023-06-19T02:12:52;22.20;99.70
35603;DHT22;21725;50.836;4.368;2023-06-19T02:15:52;22.10;99.90
35603;DHT22;21725;50.836;4.368;2023-06-19T02:18:53;22.00;99.90
35603;DHT22;21725;50.836;4.368;2023-06-19T02:21:54;22.20;99.90
35603;DHT22;21725;50.836;4.368;2023-06-19T02:24:55;22.20;99.90
35603;DHT22;21725;50.836;4.368;2023-06-19T02:27:55;22.40;99.70
35603;DHT22;21725;50.836;4.368;2023-06-19T02:30:56;22.60;99.30
35603;DHT22;21725;50.836;4.368;2023-06-19T02:33:57;22.60;99.20
35603;DHT22;21725;50.836;4.368;2023-06-19T02:36:57;22.40;99.60
35603;DHT22;21725;50.836;4.368;2023-06-19T02:39:58;22.50;99.70
35603;DHT22;21725;50.836;4.368;2023-06-19T02:42:59;22.60;99.50
35603;DHT22;21725;50.836;4.368;2023-06-19T02:45:59;22.60;99.40
35603;DHT22;21725;50.836;4.368;2023-06-19T02:49:00;22.60;99.50
35603;DHT22;21725;50.836;4.368;2023-06-19T02:52:01;22.70;99.50
35603;DHT22;21725;50.836;4.368;2023-06-19T02:55:02;22.50;99.80
35603;DHT22;21725;50.836;4.368;2023-06-19T02:58:03;22.30;99.90
35603;DHT22;21725;50.836;4.368;2023-06-19T03:01:04;22.20;99.90
35603;DHT22;21725;50.836;4.368;2023-06-19T03:04:07;21.90;99.90
35603;DHT22;21725;50.836;4.368;2023-06-19T03:07:08;21.70;99.90
35603;DHT22;21725;50.836;4.368;2023-06-19T03:10:09;21.60;99.90
35603;DHT22;21725;50.836;4.368;2023-06-19T03:13:09;21.60;99.90
35603;DHT22;21725;50.836;4.368;2023-06-19T03:16:10;21.50;99.90
35603;DHT22;21725;50.836;4.368;2023-06-19T03:19:11;21.30;99.90
35603;DHT22;21725;50.836;4.368;2023-06-19T03:22:12;21.30;99.90
35603;DHT22;21725;50.836;4.368;2023-06-19T03:25:12;21.30;99.90
35603;DHT22;21725;50.836;4.368;2023-06-19T03:39:52;21.20;99.90
35603;DHT22;21725;50.836;4.368;2023-06-19T03:42:52;21.10;99.90
35603;DHT22;21725;50.836;4.368;2023-06-19T03:45:53;21.10;99.90
35603;DHT22;21725;50.836;4.368;2023-06-19T03:48:54;21.10;99.90
35603;DHT22;21725;50.836;4.368;2023-06-19T03:51:54;21.10;99.90
35603;DHT22;21725;50.836;4.368;2023-06-19T03:54:55;21.20;99.90
35603;DHT22;21725;50.836;4.368;2023-06-19T03:57:56;21.40;99.90
35603;DHT22;21725;50.836;4.368;2023-06-19T04:00:57;21.30;99.90
35603;DHT22;21725;50.836;4.368;2023-06-19T04:03:57;21.00;99.90
35603;DHT22;21725;50.836;4.368;2023-06-19T04:06:58;20.90;99.90
35603;DHT22;21725;50.836;4.368;2023-06-19T04:10:02;20.90;99.90
35603;DHT22;21725;50.836;4.368;2023-06-19T04:13:04;20.90;99.90
35603;DHT22;21725;50.836;4.368;2023-06-19T04:16:07;21.00;99.90
35603;DHT22;21725;50.836;4.368;2023-06-19T04:19:07;21.10;99.90
35603;DHT22;21725;50.836;4.368;2023-06-19T04:22:08;21.10;99.90
35603;DHT22;21725;50.836;4.368;2023-06-19T04:25:10;21.10;99.90
35603;DHT22;21725;50.836;4.368;2023-06-19T04:28:13;21.00;99.90
35603;DHT22;21725;50.836;4.368;2023-06-19T04:31:14;21.10;99.90
35603;DHT22;21725;50.836;4.368;2023-06-19T04:34:19;21.10;99.90
35603;DHT22;21725;50.836;4.368;2023-06-19T04:37:22;21.20;99.90
35603;DHT22;21725;50.836;4.368;2023-06-19T04:40:23;21.40;99.90
35603;DHT22;21725;50.836;4.368;2023-06-19T04:43:25;21.50;99.90
35603;DHT22;21725;50.836;4.368;2023-06-19T04:46:26;21.40;99.90
35603;DHT22;21725;50.836;4.368;2023-06-19T04:49:30;21.30;99.90
35603;DHT22;21725;50.836;4.368;2023-06-19T04:52:31;21.40;99.90
35603;DHT22;21725;50.836;4.368;2023-06-19T04:55:33;21.60;99.90
35603;DHT22;21725;50.836;4.368;2023-06-19T04:58:34;21.80;99.90
35603;DHT22;21725;50.836;4.368;2023-06-19T05:01:34;21.90;99.80
35603;DHT22;21725;50.836;4.368;2023-06-19T05:04:35;21.90;99.20
35603;DHT22;21725;50.836;4.368;2023-06-19T05:07:36;21.70;99.50
35603;DHT22;21725;50.836;4.368;2023-06-19T05:10:37;21.70;99.50
35603;DHT22;21725;50.836;4.368;2023-06-19T05:13:38;21.70;99.30
35603;DHT22;21725;50.836;4.368;2023-06-19T05:16:38;21.50;99.70
35603;DHT22;21725;50.836;4.368;2023-06-19T05:19:39;21.00;99.90
35603;DHT22;21725;50.836;4.368;2023-06-19T05:22:40;21.00;99.90
35603;DHT22;21725;50.836;4.368;2023-06-19T05:25:41;21.10;99.90
35603;DHT22;21725;50.836;4.368;2023-06-19T05:28:43;21.40;99.90
35603;DHT22;21725;50.836;4.368;2023-06-19T05:31:44;21.60;99.10
35603;DHT22;21725;50.836;4.368;2023-06-19T05:34:44;21.30;99.50
35603;DHT22;21725;50.836;4.368;2023-06-19T05:37:45;21.20;99.70
35603;DHT22;21725;50.836;4.368;2023-06-19T05:40:46;21.20;99.60
35603;DHT22;21725;50.836;4.368;2023-06-19T05:43:47;21.00;99.70
35603;DHT22;21725;50.836;4.368;2023-06-19T05:46:47;21.00;99.80
35603;DHT22;21725;50.836;4.368;2023-06-19T05:49:48;21.00;99.70
35603;DHT22;21725;50.836;4.368;2023-06-19T05:52:52;20.90;99.90
35603;DHT22;21725;50.836;4.368;2023-06-19T05:55:52;21.00;99.90
35603;DHT22;21725;50.836;4.368;2023-06-19T05:58:53;21.20;99.50
35603;DHT22;21725;50.836;4.368;2023-06-19T06:01:54;21.30;99.30
35603;DHT22;21725;50.836;4.368;2023-06-19T06:04:56;21.50;99.10
35603;DHT22;21725;50.836;4.368;2023-06-19T06:07:56;21.50;98.20
35603;DHT22;21725;50.836;4.368;2023-06-19T06:10:57;21.20;98.70
35603;DHT22;21725;50.836;4.368;2023-06-19T06:13:58;21.20;99.10
35603;DHT22;21725;50.836;4.368;2023-06-19T06:16:59;21.40;98.40
35603;DHT22;21725;50.836;4.368;2023-06-19T06:19:59;21.60;97.90
35603;DHT22;21725;50.836;4.368;2023-06-19T06:23:00;21.60;97.80
35603;DHT22;21725;50.836;4.368;2023-06-19T06:26:01;21.70;97.70
35603;DHT22;21725;50.836;4.368;2023-06-19T06:29:02;21.80;97.40
35603;DHT22;21725;50.836;4.368;2023-06-19T06:32:07;22.10;97.10
35603;DHT22;21725;50.836;4.368;2023-06-19T06:35:08;22.30;96.50
35603;DHT22;21725;50.836;4.368;2023-06-19T06:38:08;22.10;96.30
35603;DHT22;21725;50.836;4.368;2023-06-19T06:41:09;21.40;97.60
35603;DHT22;21725;50.836;4.368;2023-06-19T06:44:10;21.20;97.80
35603;DHT22;21725;50.836;4.368;2023-06-19T06:47:11;21.00;98.10
35603;DHT22;21725;50.836;4.368;2023-06-19T06:50:12;21.30;97.50
35603;DHT22;21725;50.836;4.368;2023-06-19T06:53:13;21.60;97.10
35603;DHT22;21725;50.836;4.368;2023-06-19T06:56:13;22.10;96.40
35603;DHT22;21725;50.836;4.368;2023-06-19T06:59:14;23.30;94.30
35603;DHT22;21725;50.836;4.368;2023-06-19T07:02:18;23.60;93.30
35603;DHT22;21725;50.836;4.368;2023-06-19T07:05:19;23.60;93.20
35603;DHT22;21725;50.836;4.368;2023-06-19T07:08:19;23.60;93.00
35603;DHT22;21725;50.836;4.368;2023-06-19T07:11:20;23.90;92.60
35603;DHT22;21725;50.836;4.368;2023-06-19T07:14:21;23.80;91.90
35603;DHT22;21725;50.836;4.368;2023-06-19T07:17:22;23.20;93.00
35603;DHT22;21725;50.836;4.368;2023-06-19T07:20:22;23.30;93.70
35603;DHT22;21725;50.836;4.368;2023-06-19T07:23:23;23.70;93.10
35603;DHT22;21725;50.836;4.368;2023-06-19T07:26:24;24.50;92.20
35603;DHT22;21725;50.836;4.368;2023-06-19T07:29:25;24.50;91.80
35603;DHT22;21725;50.836;4.368;2023-06-19T07:32:27;23.90;92.30
35603;DHT22;21725;50.836;4.368;2023-06-19T07:35:27;24.00;92.30
35603;DHT22;21725;50.836;4.368;2023-06-19T07:38:28;23.90;92.00
35603;DHT22;21725;50.836;4.368;2023-06-19T07:41:29;23.30;92.70
35603;DHT22;21725;50.836;4.368;2023-06-19T07:44:30;23.10;93.40
35603;DHT22;21725;50.836;4.368;2023-06-19T07:47:31;23.30;93.30
35603;DHT22;21725;50.836;4.368;2023-06-19T07:50:31;23.60;92.70
35603;DHT22;21725;50.836;4.368;2023-06-19T07:53:32;24.00;91.90
35603;DHT22;21725;50.836;4.368;2023-06-19T07:56:33;24.40;91.60
35603;DHT22;21725;50.836;4.368;2023-06-19T07:59:34;24.50;91.30
35603;DHT22;21725;50.836;4.368;2023-06-19T08:02:34;24.80;90.90
35603;DHT22;21725;50.836;4.368;2023-06-19T08:05:36;25.80;89.40
35603;DHT22;21725;50.836;4.368;2023-06-19T08:08:36;26.60;87.10
35603;DHT22;21725;50.836;4.368;2023-06-19T08:11:37;26.40;86.30
35603;DHT22;21725;50.836;4.368;2023-06-19T08:14:38;26.00;87.50
35603;DHT22;21725;50.836;4.368;2023-06-19T08:17:39;25.90;88.50
35603;DHT22;21725;50.836;4.368;2023-06-19T08:20:40;26.30;87.20
35603;DHT22;21725;50.836;4.368;2023-06-19T08:23:41;26.10;87.00
35603;DHT22;21725;50.836;4.368;2023-06-19T08:26:44;26.10;87.20
35603;DHT22;21725;50.836;4.368;2023-06-19T08:29:44;26.30;86.80
35603;DHT22;21725;50.836;4.368;2023-06-19T08:32:46;26.80;85.70
35603;DHT22;21725;50.836;4.368;2023-06-19T08:35:48;27.40;83.90
35603;DHT22;21725;50.836;4.368;2023-06-19T08:38:49;27.10;84.00
35603;DHT22;21725;50.836;4.368;2023-06-19T08:41:53;26.30;85.60
35603;DHT22;21725;50.836;4.368;2023-06-19T08:44:54;25.70;87.30
35603;DHT22;21725;50.836;4.368;2023-06-19T08:47:58;25.60;87.70
35603;DHT22;21725;50.836;4.368;2023-06-19T08:50:59;25.30;87.70
35603;DHT22;21725;50.836;4.368;2023-06-19T08:54:04;25.00;88.40
35603;DHT22;21725;50.836;4.368;2023-06-19T08:57:05;24.40;90.00
35603;DHT22;21725;50.836;4.368;2023-06-19T09:00:07;24.40;90.10
35603;DHT22;21725;50.836;4.368;2023-06-19T09:03:11;24.60;90.00
35603;DHT22;21725;50.836;4.368;2023-06-19T09:06:15;24.80;90.00
35603;DHT22;21725;50.836;4.368;2023-06-19T09:09:18;24.60;90.30
35603;DHT22;21725;50.836;4.368;2023-06-19T09:12:20;24.60;90.40
35603;DHT22;21725;50.836;4.368;2023-06-19T09:15:21;24.60;90.10
35603;DHT22;21725;50.836;4.368;2023-06-19T09:18:24;24.60;90.20
35603;DHT22;21725;50.836;4.368;2023-06-19T09:21:24;24.60;90.20
35603;DHT22;21725;50.836;4.368;2023-06-19T09:24:36;24.80;90.10
35603;DHT22;21725;50.836;4.368;2023-06-19T09:27:38;24.90;90.10
35603;DHT22;21725;50.836;4.368;2023-06-19T09:30:38;25.30;88.80
35603;DHT22;21725;50.836;4.368;2023-06-19T09:33:51;25.30;88.50
35603;DHT22;21725;50.836;4.368;2023-06-19T09:36:52;25.70;87.80
35603;DHT22;21725;50.836;4.368;2023-06-19T09:39:55;25.70;87.80
35603;DHT22;21725;50.836;4.368;2023-06-19T09:42:56;25.60;88.20
35603;DHT22;21725;50.836;4.368;2023-06-19T09:45:59;25.80;87.20
35603;DHT22;21725;50.836;4.368;2023-06-19T09:49:01;26.10;86.50
35603;DHT22;21725;50.836;4.368;2023-06-19T09:52:04;26.20;86.20
35603;DHT22;21725;50.836;4.368;2023-06-19T09:55:05;26.10;86.50
35603;DHT22;21725;50.836;4.368;2023-06-19T09:58:07;26.00;86.30
35603;DHT22;21725;50.836;4.368;2023-06-19T10:01:08;25.60;86.90
35603;DHT22;21725;50.836;4.368;2023-06-19T10:04:09;25.40;87.30
35603;DHT22;21725;50.836;4.368;2023-06-19T10:07:16;25.40;87.40
35603;DHT22;21725;50.836;4.368;2023-06-19T10:10:25;25.50;88.50
35603;DHT22;21725;50.836;4.368;2023-06-19T10:13:35;25.40;88.10
35603;DHT22;21725;50.836;4.368;2023-06-19T10:16:40;25.60;87.70
35603;DHT22;21725;50.836;4.368;2023-06-19T10:19:51;25.60;88.10
35603;DHT22;21725;50.836;4.368;2023-06-19T10:23:12;25.50;88.40
35603;DHT22;21725;50.836;4.368;2023-06-19T10:26:16;25.70;87.50
35603;DHT22;21725;50.836;4.368;2023-06-19T10:29:17;25.40;87.50
35603;DHT22;21725;50.836;4.368;2023-06-19T10:32:18;25.40;87.30
35603;DHT22;21725;50.836;4.368;2023-06-19T10:35:19;25.70;87.10
35603;DHT22;21725;50.836;4.368;2023-06-19T10:38:24;25.90;86.60
35603;DHT22;21725;50.836;4.368;2023-06-19T10:41:26;25.70;86.60
35603;DHT22;21725;50.836;4.368;2023-06-19T10:44:26;25.70;86.50
35603;DHT22;21725;50.836;4.368;2023-06-19T10:47:27;25.60;87.00
35603;DHT22;21725;50.836;4.368;2023-06-19T10:50:29;25.70;87.10
35603;DHT22;21725;50.836;4.368;2023-06-19T10:53:34;26.10;84.00
35603;DHT22;21725;50.836;4.368;2023-06-19T10:56:35;26.00;85.00
35603;DHT22;21725;50.836;4.368;2023-06-19T10:59:35;26.00;86.40
35603;DHT22;21725;50.836;4.368;2023-06-19T11:02:37;26.30;85.30
35603;DHT22;21725;50.836;4.368;2023-06-19T11:05:44;26.40;84.30
35603;DHT22;21725;50.836;4.368;2023-06-19T11:08:51;26.60;82.20
35603;DHT22;21725;50.836;4.368;2023-06-19T11:11:54;26.00;82.40
35603;DHT22;21725;50.836;4.368;2023-06-19T11:14:55;25.90;84.70
35603;DHT22;21725;50.836;4.368;2023-06-19T11:17:56;26.00;83.40
35603;DHT22;21725;50.836;4.368;2023-06-19T11:20:59;26.00;83.40
35603;DHT22;21725;50.836;4.368;2023-06-19T11:24:01;26.00;83.30
35603;DHT22;21725;50.836;4.368;2023-06-19T11:27:02;26.10;84.00
35603;DHT22;21725;50.836;4.368;2023-06-19T11:30:03;26.30;83.20
35603;DHT22;21725;50.836;4.368;2023-06-19T11:33:20;26.50;82.10
35603;DHT22;21725;50.836;4.368;2023-06-19T11:36:24;26.30;83.00
35603;DHT22;21725;50.836;4.368;2023-06-19T11:39:25;26.30;79.80
35603;DHT22;21725;50.836;4.368;2023-06-19T11:42:28;26.40;80.00
35603;DHT22;21725;50.836;4.368;2023-06-19T11:45:29;26.50;81.00
35603;DHT22;21725;50.836;4.368;2023-06-19T11:48:30;26.60;81.20
35603;DHT22;21725;50.836;4.368;2023-06-19T11:51:30;27.20;80.40
35603;DHT22;21725;50.836;4.368;2023-06-19T11:54:31;27.20;79.20
35603;DHT22;21725;50.836;4.368;2023-06-19T11:57:32;27.00;77.70
35603;DHT22;21725;50.836;4.368;2023-06-19T12:00:38;26.60;77.80
35603;DHT22;21725;50.836;4.368;2023-06-19T12:03:39;26.70;76.80
35603;DHT22;21725;50.836;4.368;2023-06-19T12:06:41;27.00;77.10
35603;DHT22;21725;50.836;4.368;2023-06-19T12:09:42;27.10;76.60
35603;DHT22;21725;50.836;4.368;2023-06-19T12:12:43;27.30;77.70
35603;DHT22;21725;50.836;4.368;2023-06-19T12:15:44;27.30;78.70
35603;DHT22;21725;50.836;4.368;2023-06-19T12:18:45;27.40;77.60
35603;DHT22;21725;50.836;4.368;2023-06-19T12:21:45;27.40;76.20
35603;DHT22;21725;50.836;4.368;2023-06-19T12:24:46;27.60;76.50
35603;DHT22;21725;50.836;4.368;2023-06-19T12:27:47;27.50;76.60
35603;DHT22;21725;50.836;4.368;2023-06-19T12:30:52;27.50;76.60
35603;DHT22;21725;50.836;4.368;2023-06-19T12:33:53;27.80;77.10
35603;DHT22;21725;50.836;4.368;2023-06-19T12:36:54;27.90;77.20
35603;DHT22;21725;50.836;4.368;2023-06-19T12:39:55;28.50;75.00
35603;DHT22;21725;50.836;4.368;2023-06-19T12:42:55;28.50;74.30
35603;DHT22;21725;50.836;4.368;2023-06-19T12:45:56;28.20;72.60
35603;DHT22;21725;50.836;4.368;2023-06-19T12:48:57;27.90;73.90
35603;DHT22;21725;50.836;4.368;2023-06-19T12:51:58;28.10;74.80
35603;DHT22;21725;50.836;4.368;2023-06-19T12:54:58;28.10;74.80
35603;DHT22;21725;50.836;4.368;2023-06-19T12:58:01;28.00;75.30
35603;DHT22;21725;50.836;4.368;2023-06-19T13:01:02;28.10;74.70
35603;DHT22;21725;50.836;4.368;2023-06-19T13:04:03;28.00;75.00
35603;DHT22;21725;50.836;4.368;2023-06-19T13:07:04;28.10;74.10
35603;DHT22;21725;50.836;4.368;2023-06-19T13:10:05;28.20;73.90
35603;DHT22;21725;50.836;4.368;2023-06-19T13:13:06;28.50;73.40
35603;DHT22;21725;50.836;4.368;2023-06-19T13:16:07;28.40;72.90
35603;DHT22;21725;50.836;4.368;2023-06-19T13:19:08;28.70;72.40
35603;DHT22;21725;50.836;4.368;2023-06-19T13:22:08;28.50;72.40
35603;DHT22;21725;50.836;4.368;2023-06-19T13:25:09;28.00;73.20
35603;DHT22;21725;50.836;4.368;2023-06-19T13:28:10;27.80;74.20
35603;DHT22;21725;50.836;4.368;2023-06-19T13:31:10;27.70;74.40
35603;DHT22;21725;50.836;4.368;2023-06-19T13:34:11;27.80;73.80
35603;DHT22;21725;50.836;4.368;2023-06-19T13:37:12;27.90;74.30
35603;DHT22;21725;50.836;4.368;2023-06-19T13:40:14;28.50;72.80
35603;DHT22;21725;50.836;4.368;2023-06-19T13:43:15;28.40;73.70
35603;DHT22;21725;50.836;4.368;2023-06-19T13:46:16;28.70;74.40
35603;DHT22;21725;50.836;4.368;2023-06-19T13:49:16;28.60;75.20
35603;DHT22;21725;50.836;4.368;2023-06-19T13:52:17;28.70;74.90
35603;DHT22;21725;50.836;4.368;2023-06-19T13:55:18;28.60;74.90
35603;DHT22;21725;50.836;4.368;2023-06-19T13:58:19;28.80;75.20
35603;DHT22;21725;50.836;4.368;2023-06-19T14:01:20;28.90;75.00
35603;DHT22;21725;50.836;4.368;2023-06-19T14:04:21;28.90;74.80
35603;DHT22;21725;50.836;4.368;2023-06-19T14:07:21;29.10;74.00
35603;DHT22;21725;50.836;4.368;2023-06-19T14:10:23;29.20;74.50
35603;DHT22;21725;50.836;4.368;2023-06-19T14:13:24;28.80;75.30
35603;DHT22;21725;50.836;4.368;2023-06-19T14:16:25;28.40;75.50
35603;DHT22;21725;50.836;4.368;2023-06-19T14:19:25;28.30;76.10
35603;DHT22;21725;50.836;4.368;2023-06-19T14:22:26;28.30;76.10
35603;DHT22;21725;50.836;4.368;2023-06-19T14:25:27;28.60;75.70
35603;DHT22;21725;50.836;4.368;2023-06-19T14:28:28;28.80;74.90
35603;DHT22;21725;50.836;4.368;2023-06-19T14:31:28;29.00;74.70
35603;DHT22;21725;50.836;4.368;2023-06-19T14:34:29;29.40;73.50
35603;DHT22;21725;50.836;4.368;2023-06-19T14:37:30;29.60;72.90
35603;DHT22;21725;50.836;4.368;2023-06-19T14:40:30;29.30;73.20
35603;DHT22;21725;50.836;4.368;2023-06-19T14:43:31;29.30;73.30
35603;DHT22;21725;50.836;4.368;2023-06-19T14:46:33;29.40;73.00
35603;DHT22;21725;50.836;4.368;2023-06-19T14:49:39;29.30;73.00
35603;DHT22;21725;50.836;4.368;2023-06-19T14:52:40;29.30;72.90
35603;DHT22;21725;50.836;4.368;2023-06-19T14:55:40;29.50;72.30
35603;DHT22;21725;50.836;4.368;2023-06-19T14:58:45;29.70;71.80
35603;DHT22;21725;50.836;4.368;2023-06-19T15:01:46;29.70;70.60
35603;DHT22;21725;50.836;4.368;2023-06-19T15:04:47;29.70;70.80
35603;DHT22;21725;50.836;4.368;2023-06-19T15:07:48;29.80;71.00
35603;DHT22;21725;50.836;4.368;2023-06-19T15:10:48;29.80;71.10
35603;DHT22;21725;50.836;4.368;2023-06-19T15:13:50;29.70;72.10
35603;DHT22;21725;50.836;4.368;2023-06-19T15:16:52;29.80;71.40
35603;DHT22;21725;50.836;4.368;2023-06-19T15:19:52;29.80;71.60
35603;DHT22;21725;50.836;4.368;2023-06-19T15:22:53;29.90;71.70
35603;DHT22;21725;50.836;4.368;2023-06-19T15:25:54;30.00;70.90
35603;DHT22;21725;50.836;4.368;2023-06-19T15:28:55;29.90;71.50
35603;DHT22;21725;50.836;4.368;2023-06-19T15:31:55;29.60;72.20
35603;DHT22;21725;50.836;4.368;2023-06-19T15:34:56;29.90;71.50
35603;DHT22;21725;50.836;4.368;2023-06-19T15:37:57;30.00;71.60
35603;DHT22;21725;50.836;4.368;2023-06-19T15:40:58;29.70;71.90
35603;DHT22;21725;50.836;4.368;2023-06-19T15:43:59;29.40;72.70
35603;DHT22;21725;50.836;4.368;2023-06-19T15:47:00;29.50;72.40
35603;DHT22;21725;50.836;4.368;2023-06-19T15:50:01;29.80;72.00
35603;DHT22;21725;50.836;4.368;2023-06-19T15:53:01;30.00;71.60
35603;DHT22;21725;50.836;4.368;2023-06-19T15:56:02;30.10;71.80
35603;DHT22;21725;50.836;4.368;2023-06-19T15:59:03;30.40;72.10
35603;DHT22;21725;50.836;4.368;2023-06-19T16:02:04;30.10;72.40
35603;DHT22;21725;50.836;4.368;2023-06-19T16:05:05;30.00;72.60
35603;DHT22;21725;50.836;4.368;2023-06-19T16:08:06;30.20;72.30
35603;DHT22;21725;50.836;4.368;2023-06-19T16:11:07;30.00;72.40
35603;DHT22;21725;50.836;4.368;2023-06-19T16:14:08;29.80;72.70
35603;DHT22;21725;50.836;4.368;2023-06-19T16:17:08;29.40;73.20
35603;DHT22;21725;50.836;4.368;2023-06-19T16:35:49;29.60;74.00
35603;DHT22;21725;50.836;4.368;2023-06-19T16:38:50;29.60;74.00
35603;DHT22;21725;50.836;4.368;2023-06-19T16:41:51;29.80;73.20
35603;DHT22;21725;50.836;4.368;2023-06-19T16:44:52;29.70;72.90
35603;DHT22;21725;50.836;4.368;2023-06-19T16:47:54;29.50;73.70
35603;DHT22;21725;50.836;4.368;2023-06-19T16:50:54;29.20;74.30
35603;DHT22;21725;50.836;4.368;2023-06-19T16:53:55;29.10;74.50
35603;DHT22;21725;50.836;4.368;2023-06-19T16:56:56;29.20;74.30
35603;DHT22;21725;50.836;4.368;2023-06-19T16:59:57;29.10;74.60
35603;DHT22;21725;50.836;4.368;2023-06-19T17:02:59;29.30;74.30
35603;DHT22;21725;50.836;4.368;2023-06-19T17:06:00;29.40;73.50
35603;DHT22;21725;50.836;4.368;2023-06-19T17:09:00;29.50;72.00
35603;DHT22;21725;50.836;4.368;2023-06-19T17:12:01;29.50;72.70
35603;DHT22;21725;50.836;4.368;2023-06-19T17:15:02;29.60;71.50
35603;DHT22;21725;50.836;4.368;2023-06-19T17:18:03;29.50;71.90
35603;DHT22;21725;50.836;4.368;2023-06-19T17:21:04;29.10;71.50
35603;DHT22;21725;50.836;4.368;2023-06-19T17:24:05;29.20;70.10
35603;DHT22;21725;50.836;4.368;2023-06-19T17:27:06;29.00;71.40
35603;DHT22;21725;50.836;4.368;2023-06-19T17:30:07;28.90;71.30
35603;DHT22;21725;50.836;4.368;2023-06-19T17:33:11;29.10;71.60
35603;DHT22;21725;50.836;4.368;2023-06-19T17:36:12;29.50;69.80
35603;DHT22;21725;50.836;4.368;2023-06-19T17:39:15;29.40;69.70
35603;DHT22;21725;50.836;4.368;2023-06-19T17:42:16;29.20;69.30
35603;DHT22;21725;50.836;4.368;2023-06-19T17:45:17;29.10;70.00
35603;DHT22;21725;50.836;4.368;2023-06-19T17:48:18;28.90;71.00
35603;DHT22;21725;50.836;4.368;2023-06-19T17:51:18;28.70;71.50
35603;DHT22;21725;50.836;4.368;2023-06-19T17:54:19;28.70;71.40
35603;DHT22;21725;50.836;4.368;2023-06-19T17:57:22;28.80;72.00
35603;DHT22;21725;50.836;4.368;2023-06-19T18:00:23;29.10;72.50
35603;DHT22;21725;50.836;4.368;2023-06-19T18:03:24;29.40;71.80
35603;DHT22;21725;50.836;4.368;2023-06-19T18:06:25;29.40;71.70
35603;DHT22;21725;50.836;4.368;2023-06-19T18:09:25;29.30;72.10
35603;DHT22;21725;50.836;4.368;2023-06-19T18:12:26;29.20;72.20
35603;DHT22;21725;50.836;4.368;2023-06-19T18:15:27;29.10;72.60
35603;DHT22;21725;50.836;4.368;2023-06-19T18:18:28;29.00;72.80
35603;DHT22;21725;50.836;4.368;2023-06-19T18:21:29;29.00;72.60
35603;DHT22;21725;50.836;4.368;2023-06-19T18:24:29;29.10;72.90
35603;DHT22;21725;50.836;4.368;2023-06-19T18:27:30;28.90;73.00
35603;DHT22;21725;50.836;4.368;2023-06-19T18:30:32;28.90;73.30
35603;DHT22;21725;50.836;4.368;2023-06-19T18:33:33;28.80;73.60
35603;DHT22;21725;50.836;4.368;2023-06-19T18:36:34;28.70;73.90
35603;DHT22;21725;50.836;4.368;2023-06-19T18:39:34;28.60;74.30
35603;DHT22;21725;50.836;4.368;2023-06-19T18:42:37;28.60;74.30
35603;DHT22;21725;50.836;4.368;2023-06-19T18:45:40;28.70;74.20
35603;DHT22;21725;50.836;4.368;2023-06-19T18:48:40;28.70;74.20
35603;DHT22;21725;50.836;4.368;2023-06-19T18:51:42;28.70;74.10
35603;DHT22;21725;50.836;4.368;2023-06-19T18:54:43;28.40;74.00
35603;DHT22;21725;50.836;4.368;2023-06-19T18:57:43;28.50;74.20
35603;DHT22;21725;50.836;4.368;2023-06-19T19:00:46;28.60;74.20
35603;DHT22;21725;50.836;4.368;2023-06-19T19:03:47;28.50;74.40
35603;DHT22;21725;50.836;4.368;2023-06-19T19:06:48;28.80;73.90
35603;DHT22;21725;50.836;4.368;2023-06-19T19:09:49;28.80;74.20
35603;DHT22;21725;50.836;4.368;2023-06-19T19:12:50;28.90;73.90
35603;DHT22;21725;50.836;4.368;2023-06-19T19:15:50;28.60;74.20
35603;DHT22;21725;50.836;4.368;2023-06-19T19:18:51;28.40;74.40
35603;DHT22;21725;50.836;4.368;2023-06-19T19:21:52;28.30;74.70
35603;DHT22;21725;50.836;4.368;2023-06-19T19:24:53;27.90;75.20
35603;DHT22;21725;50.836;4.368;2023-06-19T19:27:54;27.90;76.70
35603;DHT22;21725;50.836;4.368;2023-06-19T19:30:55;27.70;76.80
35603;DHT22;21725;50.836;4.368;2023-06-19T19:33:55;27.60;77.50